Time;durP1;ratioP1;P1;durP2;ratioP2;P2;SDS_P1;SDS_P2;PMS_P1;PMS_P2;Temp;Humidity;BMP_temperature;BMP_pressure;BME280_temperature;BME280_humidity;BME280_pressure;Samples;Min_cycle;Max_cycle;Signal;HPM_P1;HPM_P2
2023/03/14 00:00:14;;;;;;;;;;;;;;;;;;1032790;28;4379;-51
2023/03/14 00:01:12;;;;;;;;;;;;;;;;;;1029645;28;2575;-52
2023/03/14 00:01:43;;;;;;;;;;;;;;;;;;1034124;28;3965;-51
2023/03/14 00:02:14;;;;;;;;;;;;;;;;;;1030338;28;3991;-52
2023/03/14 00:02:44;;;;;;;;;;;;;;;;;;1034979;28;2643;-51
2023/03/14 00:03:14;;;;;;;;;;;;;;;;;;1035213;28;3956;-51
2023/03/14 00:03:44;;;;;;;;;;;;;;;;;;1038212;28;2182;-53
2023/03/14 00:04:15;;;;;;;;;;;;;;;;;;1032498;28;3893;-52
2023/03/14 00:04:45;;;;;;;;;;;;;;;;;;1032379;28;3039;-51
2023/03/14 00:05:15;;;;;;;;;;;;;;;;;;1031495;28;4043;-51
2023/03/14 00:05:45;;;;;;;;;;;;;;;;;;1032542;28;2531;-49
2023/03/14 00:06:17;;;;;;;;;;;;;;;;;;1032531;28;3906;-52
2023/03/14 00:06:47;;;;;;;;;;;;;;;;;;1032989;28;2726;-51
2023/03/14 00:07:17;;;;;;;;;;;;;;;;;;1032079;28;3944;-50
2023/03/14 00:07:48;;;;;;;;;;;;;;;;;;1034098;28;2647;-50
2023/03/14 00:08:19;;;;;;;;;;;;;;;;;;1032691;28;4073;-53
2023/03/14 00:08:51;;;;;;;;;;;;;;;;;;1033983;28;1828;-50
2023/03/14 00:09:21;;;;;;;;;;;;;;;;;;1032145;28;4064;-52
2023/03/14 00:09:52;;;;;;;;;;;;;;;;;;1033798;28;2833;-51
2023/03/14 00:10:22;;;;;;;;;;;;;;;;;;1034050;28;3853;-50
2023/03/14 00:10:52;;;;;;;;;;;;;;;;;;1030905;28;2849;-49
2023/03/14 00:11:22;;;;;;;;;;;;;;;;;;1035646;28;3953;-52
2023/03/14 00:11:53;;;;;;;;;;;;;;;;;;1033015;28;2764;-52
2023/03/14 00:12:24;;;;;;;;;;;;;;;;;;1032674;28;3955;-52
2023/03/14 00:12:54;;;;;;;;;;;;;;;;;;1032089;28;3463;-52
2023/03/14 00:13:24;;;;;;;;;;;;;;;;;;1034063;28;4117;-52
2023/03/14 00:13:54;;;;;;;;;;;;;;;;;;1033710;28;2854;-53
2023/03/14 00:14:24;;;;;;;;;;;;;;;;;;1033367;28;4047;-53
2023/03/14 00:14:55;;;;;;;;;;;;;;;;;;1033462;28;2825;-51
2023/03/14 00:15:25;;;;;;;;;;;;;;;;;;1033967;28;4039;-54
2023/03/14 00:16:00;;;;;;;;;;;;;;;;;;1033979;28;2786;-49
2023/03/14 00:16:31;;;;;;;;;;;;;;;;;;1033940;28;4360;-51
2023/03/14 00:17:01;;;;;;;;;;;;;;;;;;1032623;28;1384;-50
2023/03/14 00:17:31;;;;;;;;;;;;;;;;;;1034042;28;3861;-49
2023/03/14 00:18:02;;;;;;;;;;;;;;;;;;1034010;28;2716;-51
2023/03/14 00:18:32;;;;;;;;;;;;;;;;;;1033214;28;4103;-49
2023/03/14 00:19:02;;;;;;;;;;;;;;;;;;1033232;28;1911;-50
2023/03/14 00:19:33;;;;;;;;;;;;;;;;;;1033446;28;4051;-50
2023/03/14 00:20:07;;;;;;;;;;;;;;;;;;1034117;28;1937;-51
2023/03/14 00:20:38;;;;;;;;;;;;;;;;;;1033728;28;3751;-52
2023/03/14 00:21:09;;;;;;;;;;;;;;;;;;1031680;28;2716;-52
2023/03/14 00:21:39;;;;;;;;;;;;;;;;;;1032299;28;4111;-53
2023/03/14 00:22:09;;;;;;;;;;;;;;;;;;1034804;28;1886;-52
2023/03/14 00:22:41;;;;;;;;;;;;;;;;;;1033516;28;4142;-50
2023/03/14 00:23:11;;;;;;;;;;;;;;;;;;1032876;28;2199;-53
2023/03/14 00:23:42;;;;;;;;;;;;;;;;;;1033645;28;4097;-49
2023/03/14 00:24:12;;;;;;;;;;;;;;;;;;1034596;28;1632;-50
2023/03/14 00:24:42;;;;;;;;;;;;;;;;;;1031989;28;3994;-48
2023/03/14 00:25:12;;;;;;;;;;;;;;;;;;1033491;28;3963;-51
2023/03/14 00:25:43;;;;;;;;;;;;;;;;;;1035527;28;1649;-48
2023/03/14 00:26:14;;;;;;;;;;;;;;;;;;1031566;28;3872;-53
2023/03/14 00:26:45;;;;;;;;;;;;;;;;;;1032372;28;1921;-52
2023/03/14 00:27:15;;;;;;;;;;;;;;;;;;1034413;28;4118;-51
2023/03/14 00:27:45;;;;;;;;;;;;;;;;;;1034497;28;1878;-51
2023/03/14 00:28:15;;;;;;;;;;;;;;;;;;1034474;28;4052;-50
2023/03/14 00:28:46;;;;;;;;;;;;;;;;;;1033278;28;1670;-51
2023/03/14 00:29:16;;;;;;;;;;;;;;;;;;1034451;28;4056;-51
2023/03/14 00:29:47;;;;;;;;;;;;;;;;;;1034023;28;1713;-50
2023/03/14 00:30:17;;;;;;;;;;;;;;;;;;1034718;28;4110;-52
2023/03/14 00:30:48;;;;;;;;;;;;;;;;;;1031607;28;2955;-53
2023/03/14 00:31:18;;;;;;;;;;;;;;;;;;1032437;28;3953;-50
2023/03/14 00:31:48;;;;;;;;;;;;;;;;;;1035083;28;1694;-53
2023/03/14 00:32:18;;;;;;;;;;;;;;;;;;1034316;28;4069;-51
2023/03/14 00:32:49;;;;;;;;;;;;;;;;;;1033759;28;3133;-50
2023/03/14 00:33:19;;;;;;;;;;;;;;;;;;1032558;28;3889;-52
2023/03/14 00:33:51;;;;;;;;;;;;;;;;;;1034802;28;1738;-50
2023/03/14 00:34:21;;;;;;;;;;;;;;;;;;1033748;28;3864;-51
2023/03/14 00:34:51;;;;;;;;;;;;;;;;;;1033730;28;2922;-53
2023/03/14 00:35:22;;;;;;;;;;;;;;;;;;1034680;28;4047;-50
2023/03/14 00:36:03;;;;;;;;;;;;;;;;;;1033798;28;1819;-51
2023/03/14 00:36:33;;;;;;;;;;;;;;;;;;1033652;28;3954;-52
2023/03/14 00:37:04;;;;;;;;;;;;;;;;;;1033100;28;1668;-51
2023/03/14 00:37:34;;;;;;;;;;;;;;;;;;1033976;28;3800;-50
2023/03/14 00:38:04;;;;;;;;;;;;;;;;;;1033918;28;1653;-49
2023/03/14 00:38:35;;;;;;;;;;;;;;;;;;1032867;28;4090;-52
2023/03/14 00:39:05;;;;;;;;;;;;;;;;;;1033633;28;1666;-54
2023/03/14 00:39:35;;;;;;;;;;;;;;;;;;1034029;28;3740;-54
2023/03/14 00:40:07;;;;;;;;;;;;;;;;;;1033581;28;2642;-50
2023/03/14 00:40:38;;;;;;;;;;;;;;;;;;1033459;28;3803;-50
2023/03/14 00:41:10;;;;;;;;;;;;;;;;;;1032178;28;2815;-50
2023/03/14 00:41:40;;;;;;;;;;;;;;;;;;1033117;28;4277;-53
2023/03/14 00:42:10;;;;;;;;;;;;;;;;;;1034076;28;2254;-51
2023/03/14 00:42:41;;;;;;;;;;;;;;;;;;1031773;28;3864;-50
2023/03/14 00:43:11;;;;;;;;;;;;;;;;;;1031515;28;3427;-50
2023/03/14 00:43:41;;;;;;;;;;;;;;;;;;1032116;28;3973;-52
2023/03/14 00:44:12;;;;;;;;;;;;;;;;;;1033984;28;1865;-53
2023/03/14 00:44:42;;;;;;;;;;;;;;;;;;1033970;28;4045;-50
2023/03/14 00:45:12;;;;;;;;;;;;;;;;;;1031768;28;1766;-52
2023/03/14 00:45:42;;;;;;;;;;;;;;;;;;1031352;28;3674;-50
2023/03/14 00:46:13;;;;;;;;;;;;;;;;;;1031040;28;3915;-49
2023/03/14 00:46:43;;;;;;;;;;;;;;;;;;1032682;28;2839;-52
2023/03/14 00:47:13;;;;;;;;;;;;;;;;;;1032145;28;4215;-51
2023/03/14 00:47:45;;;;;;;;;;;;;;;;;;1033713;28;1623;-53
2023/03/14 00:48:15;;;;;;;;;;;;;;;;;;1033850;28;4114;-50
2023/03/14 00:48:46;;;;;;;;;;;;;;;;;;1032149;28;2803;-49
2023/03/14 00:49:16;;;;;;;;;;;;;;;;;;1033990;28;3994;-50
2023/03/14 00:49:46;;;;;;;;;;;;;;;;;;1031770;28;2040;-54
2023/03/14 00:50:17;;;;;;;;;;;;;;;;;;1033582;28;4010;-51
2023/03/14 00:50:47;;;;;;;;;;;;;;;;;;1032392;28;2812;-53
2023/03/14 00:51:17;;;;;;;;;;;;;;;;;;1033111;28;4215;-54
2023/03/14 00:51:48;;;;;;;;;;;;;;;;;;1033542;28;2491;-52
2023/03/14 00:52:18;;;;;;;;;;;;;;;;;;1032113;28;4033;-49
2023/03/14 00:52:49;;;;;;;;;;;;;;;;;;1031150;28;2721;-53
2023/03/14 00:53:19;;;;;;;;;;;;;;;;;;1034632;28;4015;-54
2023/03/14 00:53:50;;;;;;;;;;;;;;;;;;1034186;28;3035;-52
2023/03/14 00:54:20;;;;;;;;;;;;;;;;;;1032564;28;4112;-53
2023/03/14 00:54:51;;;;;;;;;;;;;;;;;;1032286;28;2769;-53
2023/03/14 00:55:21;;;;;;;;;;;;;;;;;;1033523;28;4057;-50
2023/03/14 00:55:51;;;;;;;;;;;;;;;;;;1033579;28;2843;-51
2023/03/14 00:56:21;;;;;;;;;;;;;;;;;;1033755;28;4034;-51
2023/03/14 00:56:52;;;;;;;;;;;;;;;;;;1032754;28;2193;-51
2023/03/14 00:57:22;;;;;;;;;;;;;;;;;;1033611;28;4115;-51
2023/03/14 00:57:52;;;;;;;;;;;;;;;;;;1034207;28;2834;-55
2023/03/14 00:58:22;;;;;;;;;;;;;;;;;;1034815;28;3916;-52
2023/03/14 00:58:53;;;;;;;;;;;;;;;;;;1033216;28;2838;-50
2023/03/14 00:59:24;;;;;;;;;;;;;;;;;;1034638;28;3883;-52
2023/03/14 00:59:54;;;;;;;;;;;;;;;;;;1034101;28;2780;-53
2023/03/14 01:00:24;;;;;;;;;;;;;;;;;;1028000;28;3892;-51
2023/03/14 01:00:54;;;;;;;;;;;;;;;;;;1028400;28;2776;-49
2023/03/14 01:01:25;;;;;;;;;;;;;;;;;;1030676;28;4239;-51
2023/03/14 01:01:55;;;;;;;;;;;;;;;;;;1033983;28;2870;-52
2023/03/14 01:02:25;;;;;;;;;;;;;;;;;;1032823;28;3877;-51
2023/03/14 01:02:55;;;;;;;;;;;;;;;;;;1033667;28;2972;-50
2023/03/14 01:03:26;;;;;;;;;;;;;;;;;;1033620;28;3942;-50
2023/03/14 01:03:56;;;;;;;;;;;;;;;;;;1033355;28;2842;-50
2023/03/14 01:04:26;;;;;;;;;;;;;;;;;;1033072;28;4092;-50
2023/03/14 01:04:57;;;;;;;;;;;;;;;;;;1032524;28;2822;-53
2023/03/14 01:05:27;;;;;;;;;;;;;;;;;;1032712;28;4031;-52
2023/03/14 01:06:07;;;;;;;;;;;;;;;;;;1034816;28;3048;-55
2023/03/14 01:06:38;;;;;;;;;;;;;;;;;;1032678;28;4031;-51
2023/03/14 01:07:08;;;;;;;;;;;;;;;;;;1032411;28;1747;-49
2023/03/14 01:07:39;;;;;;;;;;;;;;;;;;1034760;28;4022;-50
2023/03/14 01:08:09;;;;;;;;;;;;;;;;;;1034182;28;2910;-50
2023/03/14 01:08:39;;;;;;;;;;;;;;;;;;1033709;28;3859;-52
2023/03/14 01:09:09;;;;;;;;;;;;;;;;;;1030890;28;1689;-52
2023/03/14 01:09:40;;;;;;;;;;;;;;;;;;1034414;28;4035;-52
2023/03/14 01:10:10;;;;;;;;;;;;;;;;;;1033942;28;2853;-50
2023/03/14 01:10:40;;;;;;;;;;;;;;;;;;1034373;28;3793;-50
2023/03/14 01:11:13;;;;;;;;;;;;;;;;;;1035818;28;3164;-51
2023/03/14 01:11:46;;;;;;;;;;;;;;;;;;1038270;28;3874;-51
2023/03/14 01:12:16;;;;;;;;;;;;;;;;;;1038694;28;4115;-52
2023/03/14 01:12:46;;;;;;;;;;;;;;;;;;1031194;28;2791;-54
2023/03/14 01:13:17;;;;;;;;;;;;;;;;;;1033604;28;3859;-50
2023/03/14 01:13:47;;;;;;;;;;;;;;;;;;1032239;28;2383;-50
2023/03/14 01:14:17;;;;;;;;;;;;;;;;;;1031945;28;4118;-54
2023/03/14 01:14:47;;;;;;;;;;;;;;;;;;1032447;28;2836;-51
2023/03/14 01:15:18;;;;;;;;;;;;;;;;;;1031199;28;3796;-52
2023/03/14 01:15:48;;;;;;;;;;;;;;;;;;1032922;28;3119;-54
2023/03/14 01:16:19;;;;;;;;;;;;;;;;;;1034908;28;4049;-51
2023/03/14 01:16:50;;;;;;;;;;;;;;;;;;1032891;28;3032;-53
2023/03/14 01:17:20;;;;;;;;;;;;;;;;;;1031054;28;3883;-51
2023/03/14 01:17:50;;;;;;;;;;;;;;;;;;1035278;28;1622;-51
2023/03/14 01:18:20;;;;;;;;;;;;;;;;;;1033845;28;4019;-51
2023/03/14 01:18:51;;;;;;;;;;;;;;;;;;1031478;28;2568;-53
2023/03/14 01:19:21;;;;;;;;;;;;;;;;;;1033420;28;3997;-50
2023/03/14 01:19:51;;;;;;;;;;;;;;;;;;1034585;28;1855;-50
2023/03/14 01:20:22;;;;;;;;;;;;;;;;;;1035061;28;4046;-52
2023/03/14 01:20:52;;;;;;;;;;;;;;;;;;1033889;28;2913;-51
2023/03/14 01:21:23;;;;;;;;;;;;;;;;;;1031351;28;3799;-52
2023/03/14 01:21:53;;;;;;;;;;;;;;;;;;1034792;28;1888;-50
2023/03/14 01:22:24;;;;;;;;;;;;;;;;;;1035250;28;4056;-50
2023/03/14 01:22:54;;;;;;;;;;;;;;;;;;1034857;28;1843;-53
2023/03/14 01:23:24;;;;;;;;;;;;;;;;;;1032022;28;4045;-50
2023/03/14 01:23:55;;;;;;;;;;;;;;;;;;1031677;28;2772;-51
2023/03/14 01:24:26;;;;;;;;;;;;;;;;;;1033836;28;4328;-50
2023/03/14 01:24:56;;;;;;;;;;;;;;;;;;1034619;28;2811;-52
2023/03/14 01:25:26;;;;;;;;;;;;;;;;;;1032498;28;3988;-51
2023/03/14 01:25:56;;;;;;;;;;;;;;;;;;1032603;28;2745;-50
2023/03/14 01:26:29;;;;;;;;;;;;;;;;;;1033555;28;3943;-50
2023/03/14 01:26:59;;;;;;;;;;;;;;;;;;1035536;28;1770;-50
2023/03/14 01:27:29;;;;;;;;;;;;;;;;;;1032018;28;3916;-53
2023/03/14 01:28:00;;;;;;;;;;;;;;;;;;1027768;28;2774;-53
2023/03/14 01:28:30;;;;;;;;;;;;;;;;;;1032773;28;4104;-51
2023/03/14 01:29:01;;;;;;;;;;;;;;;;;;1033573;28;2890;-52
2023/03/14 01:29:31;;;;;;;;;;;;;;;;;;1033712;28;4060;-53
2023/03/14 01:30:03;;;;;;;;;;;;;;;;;;1034749;28;2782;-52
2023/03/14 01:30:33;;;;;;;;;;;;;;;;;;1032043;28;3992;-51
2023/03/14 01:31:04;;;;;;;;;;;;;;;;;;1034210;28;2960;-50
2023/03/14 01:31:35;;;;;;;;;;;;;;;;;;1034022;28;3949;-53
2023/03/14 01:32:05;;;;;;;;;;;;;;;;;;1034934;28;1848;-53
2023/03/14 01:32:36;;;;;;;;;;;;;;;;;;1035066;28;3803;-49
2023/03/14 01:33:06;;;;;;;;;;;;;;;;;;1034378;28;1839;-50
2023/03/14 01:33:36;;;;;;;;;;;;;;;;;;1032259;28;3866;-53
2023/03/14 01:34:07;;;;;;;;;;;;;;;;;;1033121;28;3132;-52
2023/03/14 01:34:37;;;;;;;;;;;;;;;;;;1034504;28;3962;-52
2023/03/14 01:35:07;;;;;;;;;;;;;;;;;;1035600;28;3143;-49
2023/03/14 01:35:37;;;;;;;;;;;;;;;;;;1033424;28;3922;-49
2023/03/14 01:36:08;;;;;;;;;;;;;;;;;;1033986;28;2289;-52
2023/03/14 01:36:38;;;;;;;;;;;;;;;;;;1034086;28;3794;-52
2023/03/14 01:37:09;;;;;;;;;;;;;;;;;;1034816;28;1446;-50
2023/03/14 01:37:39;;;;;;;;;;;;;;;;;;1033878;28;3970;-50
2023/03/14 01:38:09;;;;;;;;;;;;;;;;;;1033219;28;2721;-49
2023/03/14 01:38:40;;;;;;;;;;;;;;;;;;1031320;28;3915;-50
2023/03/14 01:39:10;;;;;;;;;;;;;;;;;;1034756;28;1675;-51
2023/03/14 01:39:40;;;;;;;;;;;;;;;;;;1033975;28;3808;-48
2023/03/14 01:40:11;;;;;;;;;;;;;;;;;;1033717;28;2655;-51
2023/03/14 01:40:42;;;;;;;;;;;;;;;;;;1034830;28;4379;-49
2023/03/14 01:41:16;;;;;;;;;;;;;;;;;;1033894;28;1866;-52
2023/03/14 01:41:46;;;;;;;;;;;;;;;;;;1035246;28;4016;-53
2023/03/14 01:42:17;;;;;;;;;;;;;;;;;;1032257;28;3806;-50
2023/03/14 01:42:55;;;;;;;;;;;;;;;;;;1035428;28;1366;-51
2023/03/14 01:43:25;;;;;;;;;;;;;;;;;;1033043;28;4104;-50
2023/03/14 01:43:55;;;;;;;;;;;;;;;;;;1034466;28;2776;-50
2023/03/14 01:44:26;;;;;;;;;;;;;;;;;;1034186;28;4089;-56
2023/03/14 01:44:57;;;;;;;;;;;;;;;;;;1034326;28;2833;-52
2023/03/14 01:45:46;;;;;;;;;;;;;;;;;;1032093;28;4061;-50
2023/03/14 01:46:25;;;;;;;;;;;;;;;;;;1033738;28;3891;-49
2023/03/14 01:46:56;;;;;;;;;;;;;;;;;;1034249;28;1563;-54
2023/03/14 01:47:26;;;;;;;;;;;;;;;;;;1033119;28;4037;-50
2023/03/14 01:47:56;;;;;;;;;;;;;;;;;;1033629;28;2774;-49
2023/03/14 01:48:28;;;;;;;;;;;;;;;;;;1033184;28;4034;-53
2023/03/14 01:49:04;;;;;;;;;;;;;;;;;;1034406;28;1832;-49
2023/03/14 01:49:35;;;;;;;;;;;;;;;;;;1032578;28;3859;-54
2023/03/14 01:50:07;;;;;;;;;;;;;;;;;;1034849;28;1749;-52
2023/03/14 01:50:38;;;;;;;;;;;;;;;;;;1035299;28;3726;-52
2023/03/14 01:51:12;;;;;;;;;;;;;;;;;;1033946;28;1877;-51
2023/03/14 01:52:01;;;;;;;;;;;;;;;;;;1033970;28;3803;-53
2023/03/14 01:52:34;;;;;;;;;;;;;;;;;;1034992;28;4022;-49
2023/03/14 01:53:05;;;;;;;;;;;;;;;;;;1034920;28;1647;-51
2023/03/14 01:53:36;;;;;;;;;;;;;;;;;;1034471;28;4028;-50
2023/03/14 01:54:09;;;;;;;;;;;;;;;;;;1034051;28;3349;-50
2023/03/14 01:54:44;;;;;;;;;;;;;;;;;;1033538;28;3788;-54
2023/03/14 01:55:21;;;;;;;;;;;;;;;;;;1033130;28;4072;-52
2023/03/14 01:55:52;;;;;;;;;;;;;;;;;;1032439;28;1709;-52
2023/03/14 01:56:23;;;;;;;;;;;;;;;;;;1033102;28;4116;-52
2023/03/14 01:56:57;;;;;;;;;;;;;;;;;;1039511;28;1788;-52
2023/03/14 01:57:36;;;;;;;;;;;;;;;;;;1036099;28;4224;-50
2023/03/14 01:58:07;;;;;;;;;;;;;;;;;;1037082;28;1892;-52
2023/03/14 01:58:39;;;;;;;;;;;;;;;;;;1036265;28;3856;-53
2023/03/14 01:59:10;;;;;;;;;;;;;;;;;;1039085;28;1651;-50
2023/03/14 01:59:42;;;;;;;;;;;;;;;;;;1037359;28;4029;-55
2023/03/14 02:00:14;;;;;;;;;;;;;;;;;;1037678;28;4033;-48
2023/03/14 02:00:45;;;;;;;;;;;;;;;;;;1038962;28;2228;-52
2023/03/14 02:01:17;;;;;;;;;;;;;;;;;;1038339;28;4057;-55
2023/03/14 02:01:49;;;;;;;;;;;;;;;;;;1035285;28;2679;-51
2023/03/14 02:02:19;;;;;;;;;;;;;;;;;;1036194;28;3966;-50
2023/03/14 02:02:51;;;;;;;;;;;;;;;;;;1036646;28;2423;-49
2023/03/14 02:03:23;;;;;;;;;;;;;;;;;;1036137;28;3919;-56
2023/03/14 02:03:54;;;;;;;;;;;;;;;;;;1037979;28;2791;-49
2023/03/14 02:04:27;;;;;;;;;;;;;;;;;;1038236;28;4062;-49
2023/03/14 02:04:58;;;;;;;;;;;;;;;;;;1036668;28;2490;-53
2023/03/14 02:05:32;;;;;;;;;;;;;;;;;;1037579;28;4058;-51
2023/03/14 02:06:05;;;;;;;;;;;;;;;;;;1035705;28;2775;-53
2023/03/14 02:06:48;;;;;;;;;;;;;;;;;;1038165;28;4056;-50
2023/03/14 02:07:21;;;;;;;;;;;;;;;;;;1037204;28;3903;-51
2023/03/14 02:07:53;;;;;;;;;;;;;;;;;;1036786;28;2808;-52
2023/03/14 02:08:24;;;;;;;;;;;;;;;;;;1036010;28;4152;-50
2023/03/14 02:08:55;;;;;;;;;;;;;;;;;;1038938;28;3095;-52
2023/03/14 02:09:25;;;;;;;;;;;;;;;;;;1037525;28;4419;-53
2023/03/14 02:09:56;;;;;;;;;;;;;;;;;;1038873;28;1732;-49
2023/03/14 02:10:31;;;;;;;;;;;;;;;;;;1036522;28;4025;-50
2023/03/14 02:11:02;;;;;;;;;;;;;;;;;;1039367;28;1590;-54
2023/03/14 02:11:32;;;;;;;;;;;;;;;;;;1037326;28;4004;-51
2023/03/14 02:12:02;;;;;;;;;;;;;;;;;;1038234;28;3090;-51
2023/03/14 02:12:34;;;;;;;;;;;;;;;;;;1038007;28;4029;-50
2023/03/14 02:13:04;;;;;;;;;;;;;;;;;;1037711;28;1410;-49
2023/03/14 02:13:35;;;;;;;;;;;;;;;;;;1036858;28;3895;-53
2023/03/14 02:14:05;;;;;;;;;;;;;;;;;;1037784;28;2653;-52
2023/03/14 02:14:36;;;;;;;;;;;;;;;;;;1039179;28;4007;-50
2023/03/14 02:15:06;;;;;;;;;;;;;;;;;;1036578;28;2898;-54
2023/03/14 02:15:37;;;;;;;;;;;;;;;;;;1037424;28;3759;-50
2023/03/14 02:16:08;;;;;;;;;;;;;;;;;;1039007;28;1983;-54
2023/03/14 02:16:38;;;;;;;;;;;;;;;;;;1038950;28;4181;-49
2023/03/14 02:17:08;;;;;;;;;;;;;;;;;;1037421;28;2186;-50
2023/03/14 02:17:41;;;;;;;;;;;;;;;;;;1035945;28;3827;-52
2023/03/14 02:18:12;;;;;;;;;;;;;;;;;;1036661;28;2733;-51
2023/03/14 02:18:42;;;;;;;;;;;;;;;;;;1038532;28;3872;-53
2023/03/14 02:19:16;;;;;;;;;;;;;;;;;;1038330;28;3885;-52
2023/03/14 02:19:53;;;;;;;;;;;;;;;;;;1035799;28;2811;-50
2023/03/14 02:20:24;;;;;;;;;;;;;;;;;;1036505;28;3833;-50
2023/03/14 02:20:54;;;;;;;;;;;;;;;;;;1038997;28;1388;-52
2023/03/14 02:21:33;;;;;;;;;;;;;;;;;;1038124;28;4173;-52
2023/03/14 02:22:10;;;;;;;;;;;;;;;;;;1037883;28;1837;-51
2023/03/14 02:22:41;;;;;;;;;;;;;;;;;;1036401;28;3839;-50
2023/03/14 02:23:15;;;;;;;;;;;;;;;;;;1039092;28;1739;-52
2023/03/14 02:24:17;;;;;;;;;;;;;;;;;;1037797;28;3949;-49
2023/03/14 02:24:58;;;;;;;;;;;;;;;;;;1035181;28;3965;-50
2023/03/14 02:25:41;;;;;;;;;;;;;;;;;;1033742;28;3809;-49
2023/03/14 02:26:16;;;;;;;;;;;;;;;;;;1036847;28;2777;-50
2023/03/14 02:27:01;;;;;;;;;;;;;;;;;;1037272;28;3938;-51
2023/03/14 02:27:31;;;;;;;;;;;;;;;;;;1037054;28;4059;-53
2023/03/14 02:28:01;;;;;;;;;;;;;;;;;;1038156;28;1694;-51
2023/03/14 02:28:32;;;;;;;;;;;;;;;;;;1036594;28;3969;-49
2023/03/14 02:29:02;;;;;;;;;;;;;;;;;;1038303;28;1562;-50
2023/03/14 02:29:34;;;;;;;;;;;;;;;;;;1037451;28;3771;-52
2023/03/14 02:30:12;;;;;;;;;;;;;;;;;;1036355;28;2727;-49
2023/03/14 02:30:43;;;;;;;;;;;;;;;;;;1034468;28;3866;-50
2023/03/14 02:31:14;;;;;;;;;;;;;;;;;;1035074;28;4263;-52
2023/03/14 02:31:44;;;;;;;;;;;;;;;;;;1037734;28;1882;-54
2023/03/14 02:32:16;;;;;;;;;;;;;;;;;;1037697;28;4077;-51
2023/03/14 02:32:47;;;;;;;;;;;;;;;;;;1038358;28;1817;-52
2023/03/14 02:33:19;;;;;;;;;;;;;;;;;;1037180;28;3798;-52
2023/03/14 02:33:50;;;;;;;;;;;;;;;;;;1036043;28;2403;-51
2023/03/14 02:34:20;;;;;;;;;;;;;;;;;;1037775;28;4006;-52
2023/03/14 02:34:54;;;;;;;;;;;;;;;;;;1038987;28;1615;-49
2023/03/14 02:35:26;;;;;;;;;;;;;;;;;;1036335;28;3949;-54
2023/03/14 02:36:01;;;;;;;;;;;;;;;;;;1038294;28;2819;-51
2023/03/14 02:36:31;;;;;;;;;;;;;;;;;;1035388;28;3869;-49
2023/03/14 02:37:02;;;;;;;;;;;;;;;;;;1034364;28;2863;-51
2023/03/14 02:37:34;;;;;;;;;;;;;;;;;;1037171;28;4113;-53
2023/03/14 02:38:20;;;;;;;;;;;;;;;;;;1039289;28;1686;-50
2023/03/14 02:39:08;;;;;;;;;;;;;;;;;;1035481;28;3804;-52
2023/03/14 02:39:40;;;;;;;;;;;;;;;;;;1035592;28;4033;-53
2023/03/14 02:40:10;;;;;;;;;;;;;;;;;;1039274;28;2403;-51
2023/03/14 02:40:40;;;;;;;;;;;;;;;;;;1036084;28;4073;-53
2023/03/14 02:41:11;;;;;;;;;;;;;;;;;;1037907;28;2811;-52
2023/03/14 02:41:42;;;;;;;;;;;;;;;;;;1036875;28;4028;-52
2023/03/14 02:42:13;;;;;;;;;;;;;;;;;;1038169;28;1656;-53
2023/03/14 02:42:43;;;;;;;;;;;;;;;;;;1037593;28;3893;-53
2023/03/14 02:43:13;;;;;;;;;;;;;;;;;;1037582;28;4034;-50
2023/03/14 02:43:44;;;;;;;;;;;;;;;;;;1036213;28;2570;-51
2023/03/14 02:44:14;;;;;;;;;;;;;;;;;;1035612;28;3857;-53
2023/03/14 02:45:07;;;;;;;;;;;;;;;;;;1035191;28;2794;-54
2023/03/14 02:45:39;;;;;;;;;;;;;;;;;;1032002;28;4278;-53
2023/03/14 02:46:11;;;;;;;;;;;;;;;;;;1034447;28;1758;-50
2023/03/14 02:46:41;;;;;;;;;;;;;;;;;;1034150;28;3809;-53
2023/03/14 02:47:12;;;;;;;;;;;;;;;;;;1035835;28;2936;-50
2023/03/14 02:47:43;;;;;;;;;;;;;;;;;;1037708;28;3984;-49
2023/03/14 02:48:16;;;;;;;;;;;;;;;;;;1037634;28;4041;-52
2023/03/14 02:48:50;;;;;;;;;;;;;;;;;;1037777;28;2815;-51
2023/03/14 02:49:20;;;;;;;;;;;;;;;;;;1037617;28;4383;-54
2023/03/14 02:49:52;;;;;;;;;;;;;;;;;;1038767;28;1702;-51
2023/03/14 02:50:24;;;;;;;;;;;;;;;;;;1038899;28;4572;-52
2023/03/14 02:50:56;;;;;;;;;;;;;;;;;;1039009;28;1928;-52
2023/03/14 02:51:27;;;;;;;;;;;;;;;;;;1036043;28;3770;-53
2023/03/14 02:51:57;;;;;;;;;;;;;;;;;;1036062;28;2833;-50
2023/03/14 02:52:27;;;;;;;;;;;;;;;;;;1037729;28;3979;-51
2023/03/14 02:52:58;;;;;;;;;;;;;;;;;;1038395;28;1981;-54
2023/03/14 02:53:32;;;;;;;;;;;;;;;;;;1037143;28;3922;-49
2023/03/14 02:54:03;;;;;;;;;;;;;;;;;;1037624;28;2795;-50
2023/03/14 02:54:33;;;;;;;;;;;;;;;;;;1037443;28;3772;-54
2023/03/14 02:55:03;;;;;;;;;;;;;;;;;;1037061;28;2079;-50
2023/03/14 02:55:34;;;;;;;;;;;;;;;;;;1036490;28;3964;-51
2023/03/14 02:56:04;;;;;;;;;;;;;;;;;;1038193;28;1861;-53
2023/03/14 02:56:35;;;;;;;;;;;;;;;;;;1035916;28;3904;-53
2023/03/14 02:57:05;;;;;;;;;;;;;;;;;;1038444;28;1614;-52
2023/03/14 02:57:35;;;;;;;;;;;;;;;;;;1037094;28;4276;-53
2023/03/14 02:58:05;;;;;;;;;;;;;;;;;;1035896;28;2996;-52
2023/03/14 02:58:36;;;;;;;;;;;;;;;;;;1041319;28;3967;-52
2023/03/14 02:59:06;;;;;;;;;;;;;;;;;;1036534;28;2541;-52
2023/03/14 02:59:36;;;;;;;;;;;;;;;;;;1034385;28;4018;-51
2023/03/14 03:00:08;;;;;;;;;;;;;;;;;;1036214;28;2620;-53
2023/03/14 03:00:38;;;;;;;;;;;;;;;;;;1034938;28;3843;-50
2023/03/14 03:01:08;;;;;;;;;;;;;;;;;;1037231;28;2797;-53
2023/03/14 03:01:38;;;;;;;;;;;;;;;;;;1037305;28;4009;-52
2023/03/14 03:02:08;;;;;;;;;;;;;;;;;;1038695;28;2796;-50
2023/03/14 03:02:39;;;;;;;;;;;;;;;;;;1037635;28;3935;-53
2023/03/14 03:03:09;;;;;;;;;;;;;;;;;;1037181;28;2712;-52
2023/03/14 03:03:39;;;;;;;;;;;;;;;;;;1037948;28;3986;-53
2023/03/14 03:04:10;;;;;;;;;;;;;;;;;;1037569;28;2778;-51
2023/03/14 03:04:40;;;;;;;;;;;;;;;;;;1036214;28;3869;-53
2023/03/14 03:05:10;;;;;;;;;;;;;;;;;;1039113;28;1782;-52
2023/03/14 03:05:42;;;;;;;;;;;;;;;;;;1037127;28;3710;-53
2023/03/14 03:06:12;;;;;;;;;;;;;;;;;;1038280;28;2028;-51
2023/03/14 03:06:42;;;;;;;;;;;;;;;;;;1034419;28;3796;-52
2023/03/14 03:07:13;;;;;;;;;;;;;;;;;;1036603;28;4047;-50
2023/03/14 03:07:43;;;;;;;;;;;;;;;;;;1038417;28;1828;-52
2023/03/14 03:08:13;;;;;;;;;;;;;;;;;;1035871;28;4090;-52
2023/03/14 03:08:43;;;;;;;;;;;;;;;;;;1037711;28;2998;-52
2023/03/14 03:09:14;;;;;;;;;;;;;;;;;;1033710;28;3797;-52
2023/03/14 03:09:44;;;;;;;;;;;;;;;;;;1035905;28;1771;-49
2023/03/14 03:10:14;;;;;;;;;;;;;;;;;;1034815;28;4191;-52
2023/03/14 03:10:45;;;;;;;;;;;;;;;;;;1037067;28;3034;-52
2023/03/14 03:11:15;;;;;;;;;;;;;;;;;;1037341;28;4069;-53
2023/03/14 03:11:45;;;;;;;;;;;;;;;;;;1038285;28;1816;-50
2023/03/14 03:12:16;;;;;;;;;;;;;;;;;;1036171;28;3895;-51
2023/03/14 03:12:46;;;;;;;;;;;;;;;;;;1038926;28;1816;-50
2023/03/14 03:13:16;;;;;;;;;;;;;;;;;;1037263;28;4124;-52
2023/03/14 03:13:46;;;;;;;;;;;;;;;;;;1036746;28;1813;-50
2023/03/14 03:14:17;;;;;;;;;;;;;;;;;;1035964;28;3912;-50
2023/03/14 03:14:47;;;;;;;;;;;;;;;;;;1037521;28;1696;-54
2023/03/14 03:15:17;;;;;;;;;;;;;;;;;;1034124;28;3908;-50
2023/03/14 03:15:47;;;;;;;;;;;;;;;;;;1037718;28;2783;-51
2023/03/14 03:16:18;;;;;;;;;;;;;;;;;;1034185;28;4053;-52
2023/03/14 03:16:48;;;;;;;;;;;;;;;;;;1039254;28;2813;-53
2023/03/14 03:17:18;;;;;;;;;;;;;;;;;;1037052;28;3907;-53
2023/03/14 03:17:48;;;;;;;;;;;;;;;;;;1037348;28;1894;-52
2023/03/14 03:18:19;;;;;;;;;;;;;;;;;;1037942;28;4097;-50
2023/03/14 03:18:49;;;;;;;;;;;;;;;;;;1038539;28;1916;-50
2023/03/14 03:19:20;;;;;;;;;;;;;;;;;;1034053;28;3801;-50
2023/03/14 03:19:50;;;;;;;;;;;;;;;;;;1037146;28;2108;-53
2023/03/14 03:20:21;;;;;;;;;;;;;;;;;;1038991;28;4067;-49
2023/03/14 03:20:51;;;;;;;;;;;;;;;;;;1038491;28;1843;-52
2023/03/14 03:21:23;;;;;;;;;;;;;;;;;;1038295;28;3901;-49
2023/03/14 03:21:53;;;;;;;;;;;;;;;;;;1036296;28;1811;-51
2023/03/14 03:22:23;;;;;;;;;;;;;;;;;;1038175;28;3969;-52
2023/03/14 03:22:54;;;;;;;;;;;;;;;;;;1038523;28;1884;-51
2023/03/14 03:23:24;;;;;;;;;;;;;;;;;;1033651;28;4099;-51
2023/03/14 03:23:54;;;;;;;;;;;;;;;;;;1036417;28;2761;-51
2023/03/14 03:24:25;;;;;;;;;;;;;;;;;;1036704;28;3870;-52
2023/03/14 03:24:55;;;;;;;;;;;;;;;;;;1038238;28;1710;-52
2023/03/14 03:25:25;;;;;;;;;;;;;;;;;;1038563;28;3880;-52
2023/03/14 03:25:56;;;;;;;;;;;;;;;;;;1036712;28;2715;-50
2023/03/14 03:26:26;;;;;;;;;;;;;;;;;;1037207;28;3895;-49
2023/03/14 03:26:56;;;;;;;;;;;;;;;;;;1036253;28;2874;-51
2023/03/14 03:27:26;;;;;;;;;;;;;;;;;;1039142;28;4052;-49
2023/03/14 03:27:57;;;;;;;;;;;;;;;;;;1037304;28;1442;-53
2023/03/14 03:28:27;;;;;;;;;;;;;;;;;;1034983;28;4025;-49
2023/03/14 03:28:57;;;;;;;;;;;;;;;;;;1036434;28;2791;-53
2023/03/14 03:29:28;;;;;;;;;;;;;;;;;;1038282;28;4036;-52
2023/03/14 03:29:58;;;;;;;;;;;;;;;;;;1036180;28;2019;-52
2023/03/14 03:30:29;;;;;;;;;;;;;;;;;;1032318;28;4544;-50
2023/03/14 03:31:05;;;;;;;;;;;;;;;;;;1039600;28;1635;-52
2023/03/14 03:31:37;;;;;;;;;;;;;;;;;;1037329;28;3847;-49
2023/03/14 03:32:07;;;;;;;;;;;;;;;;;;1036076;28;2785;-50
2023/03/14 03:32:37;;;;;;;;;;;;;;;;;;1039887;28;4026;-49
2023/03/14 03:33:08;;;;;;;;;;;;;;;;;;1038788;28;1762;-52
2023/03/14 03:33:38;;;;;;;;;;;;;;;;;;1035451;28;3933;-51
2023/03/14 03:34:09;;;;;;;;;;;;;;;;;;1036873;28;2905;-54
2023/03/14 03:34:39;;;;;;;;;;;;;;;;;;1034323;28;3837;-51
2023/03/14 03:35:09;;;;;;;;;;;;;;;;;;1038895;28;1622;-50
2023/03/14 03:35:44;;;;;;;;;;;;;;;;;;1036883;28;4095;-54
2023/03/14 03:36:14;;;;;;;;;;;;;;;;;;1036616;28;4077;-50
2023/03/14 03:36:44;;;;;;;;;;;;;;;;;;1039023;28;1593;-51
2023/03/14 03:37:15;;;;;;;;;;;;;;;;;;1035185;28;4036;-49
2023/03/14 03:37:45;;;;;;;;;;;;;;;;;;1036165;28;1868;-54
2023/03/14 03:38:15;;;;;;;;;;;;;;;;;;1036580;28;4079;-53